createdAt,value
2018-10-02T00:00:17.635Z,1017.28
2018-10-02T00:01:17.172Z,1017.23
2018-10-02T00:02:18.110Z,1017.26
2018-10-02T00:03:18.115Z,1017.21
2018-10-02T00:04:17.134Z,1017.19
2018-10-02T00:05:17.665Z,1017.17
2018-10-02T00:06:18.109Z,1017.12
2018-10-02T00:07:17.644Z,1017.14
2018-10-02T00:08:17.117Z,1017.13
2018-10-02T00:09:17.627Z,1017.03
2018-10-02T00:10:17.135Z,1017.08
2018-10-02T00:11:17.613Z,1017.09
2018-10-02T00:12:17.605Z,1017.02
2018-10-02T00:13:17.070Z,1017.07
2018-10-02T00:14:17.608Z,1017.08
2018-10-02T00:15:17.122Z,1017.06
2018-10-02T00:16:17.007Z,1016.97
2018-10-02T00:17:16.996Z,1017.06
2018-10-02T00:18:17.022Z,1017.07
2018-10-02T00:19:17.609Z,1017.07
2018-10-02T00:20:16.980Z,1017.05
2018-10-02T00:21:16.953Z,1017.07
2018-10-02T00:22:16.942Z,1017.02
2018-10-02T00:23:16.947Z,1017.08
2018-10-02T00:24:17.620Z,1017.10
2018-10-02T00:25:17.145Z,1017.07
2018-10-02T00:26:16.914Z,1017.05
2018-10-02T00:27:16.896Z,1017.05
2018-10-02T00:28:16.876Z,1017.03
2018-10-02T00:29:17.651Z,1017.00
2018-10-02T00:30:17.174Z,1016.97
2018-10-02T00:31:16.877Z,1016.99
2018-10-02T00:32:17.821Z,1016.95
2018-10-02T00:33:17.611Z,1016.93
2018-10-02T00:34:16.845Z,1016.98
2018-10-02T00:35:17.128Z,1016.98
2018-10-02T00:36:16.807Z,1017.04
2018-10-02T00:37:16.789Z,1017.03
2018-10-02T00:38:16.769Z,1016.98
2018-10-02T00:39:16.784Z,1016.94
2018-10-02T00:40:16.799Z,1016.93
2018-10-02T00:41:16.742Z,1016.93
2018-10-02T00:42:16.735Z,1016.88
2018-10-02T00:43:16.722Z,1016.79
2018-10-02T00:44:17.631Z,1016.88
2018-10-02T00:45:16.818Z,1016.83
2018-10-02T00:46:16.692Z,1016.81
2018-10-02T00:47:17.619Z,1016.79
2018-10-02T00:48:17.612Z,1016.83
2018-10-02T00:49:16.657Z,1016.74
2018-10-02T00:50:16.688Z,1016.81
2018-10-02T00:51:16.632Z,1016.81
2018-10-02T00:52:16.622Z,1016.80
2018-10-02T00:53:16.609Z,1016.73
2018-10-02T00:54:17.112Z,1016.73
2018-10-02T00:55:16.610Z,1016.78
2018-10-02T00:56:16.579Z,1016.80
2018-10-02T00:57:16.594Z,1016.73
2018-10-02T00:58:16.554Z,1016.77
2018-10-02T00:59:16.547Z,1016.77
2018-10-02T01:00:16.623Z,1016.79
2018-10-02T01:01:16.530Z,1016.83
2018-10-02T01:02:16.509Z,1016.83
2018-10-02T01:03:16.519Z,1016.79
2018-10-02T01:04:16.556Z,1016.84
2018-10-02T01:05:16.796Z,1016.82
2018-10-02T01:06:16.467Z,1016.77
2018-10-02T01:07:16.460Z,1016.78
2018-10-02T01:08:16.448Z,1016.76
2018-10-02T01:09:17.139Z,1016.73
2018-10-02T01:10:16.661Z,1016.76
2018-10-02T01:11:17.122Z,1016.76
2018-10-02T01:12:16.403Z,1016.75
2018-10-02T01:13:16.422Z,1016.75
2018-10-02T01:14:16.387Z,1016.75
2018-10-02T01:15:16.376Z,1016.75
2018-10-02T01:16:16.403Z,1016.75
2018-10-02T01:17:17.109Z,1016.73
2018-10-02T01:18:17.108Z,1016.72
2018-10-02T01:19:17.118Z,1016.74
2018-10-02T01:20:16.321Z,1016.74
2018-10-02T01:21:16.629Z,1016.72
2018-10-02T01:22:17.114Z,1016.76
2018-10-02T01:23:16.299Z,1016.77
2018-10-02T01:24:16.331Z,1016.73
2018-10-02T01:25:17.121Z,1016.77
2018-10-02T01:26:16.281Z,1016.74
2018-10-02T01:27:16.245Z,1016.75
2018-10-02T01:28:16.272Z,1016.81
2018-10-02T01:29:16.228Z,1016.71
2018-10-02T01:30:17.114Z,1016.78
2018-10-02T01:31:16.628Z,1016.79
2018-10-02T01:32:17.112Z,1016.73
2018-10-02T01:33:17.129Z,1016.70
2018-10-02T01:34:16.177Z,1016.64
2018-10-02T01:35:16.162Z,1016.73
2018-10-02T01:36:16.169Z,1016.68
2018-10-02T01:37:16.135Z,1016.67
2018-10-02T01:38:17.122Z,1016.73
2018-10-02T01:39:16.232Z,1016.64
2018-10-02T01:40:16.622Z,1016.64
2018-10-02T01:41:16.114Z,1016.63
2018-10-02T01:42:16.616Z,1016.58
2018-10-02T01:43:16.102Z,1016.59
2018-10-02T01:44:16.094Z,1016.55
2018-10-02T01:45:16.659Z,1016.54
2018-10-02T01:46:16.061Z,1016.51
2018-10-02T01:47:16.033Z,1016.48
2018-10-02T01:48:16.017Z,1016.51
2018-10-02T01:49:16.006Z,1016.49
2018-10-02T01:50:16.621Z,1016.51
2018-10-02T01:51:16.025Z,1016.48
2018-10-02T01:52:15.980Z,1016.42
2018-10-02T01:53:15.959Z,1016.45
2018-10-02T01:54:15.954Z,1016.50
2018-10-02T01:55:15.957Z,1016.44
2018-10-02T01:56:16.630Z,1016.43
2018-10-02T01:57:15.945Z,1016.44
2018-10-02T01:58:15.903Z,1016.46
2018-10-02T01:59:15.894Z,1016.43
2018-10-02T02:00:15.931Z,1016.40
2018-10-02T02:01:15.933Z,1016.40
2018-10-02T02:02:15.866Z,1016.38
2018-10-02T02:03:16.627Z,1016.38
2018-10-02T02:04:15.840Z,1016.36
2018-10-02T02:05:15.842Z,1016.34
2018-10-02T02:06:15.839Z,1016.39
2018-10-02T02:07:15.808Z,1016.32
2018-10-02T02:08:16.614Z,1016.35
2018-10-02T02:09:15.817Z,1016.31
2018-10-02T02:10:16.978Z,1016.33
2018-10-02T02:11:15.838Z,1016.30
2018-10-02T02:12:15.754Z,1016.31
2018-10-02T02:13:15.742Z,1016.32
2018-10-02T02:14:15.755Z,1016.23
2018-10-02T02:15:15.733Z,1016.21
2018-10-02T02:16:19.179Z,1016.20
2018-10-02T02:17:15.733Z,1016.13
2018-10-02T02:18:15.687Z,1016.13
2018-10-02T02:19:15.677Z,1016.13
2018-10-02T02:20:18.098Z,1016.02
2018-10-02T02:21:16.213Z,1016.09
2018-10-02T02:22:15.646Z,1016.13
2018-10-02T02:23:15.644Z,1016.15
2018-10-02T02:24:15.620Z,1016.12
2018-10-02T02:25:22.821Z,1016.05
2018-10-02T02:26:15.639Z,1016.02
2018-10-02T02:27:15.586Z,1016.05
2018-10-02T02:28:15.575Z,1016.03
2018-10-02T02:29:15.569Z,1016.02
2018-10-02T02:30:16.764Z,1015.94
2018-10-02T02:31:15.581Z,1015.95
2018-10-02T02:32:15.550Z,1015.98
2018-10-02T02:33:15.530Z,1015.96
2018-10-02T02:34:15.512Z,1015.96
2018-10-02T02:35:15.500Z,1015.91
2018-10-02T02:36:15.603Z,1015.86
2018-10-02T02:37:16.114Z,1015.89
2018-10-02T02:38:15.474Z,1015.92
2018-10-02T02:39:15.456Z,1015.90
2018-10-02T02:40:19.070Z,1015.87
2018-10-02T02:41:16.157Z,1015.86
2018-10-02T02:42:15.467Z,1015.82
2018-10-02T02:43:15.419Z,1015.78
2018-10-02T02:44:15.425Z,1015.82
2018-10-02T02:45:15.411Z,1015.81
2018-10-02T02:46:15.407Z,1015.87
2018-10-02T02:47:15.364Z,1015.76
2018-10-02T02:48:15.360Z,1015.83
2018-10-02T02:49:15.357Z,1015.84
2018-10-02T02:50:15.337Z,1015.85
2018-10-02T02:51:15.372Z,1015.80
2018-10-02T02:52:15.320Z,1015.85
2018-10-02T02:53:15.299Z,1015.76
2018-10-02T02:54:15.310Z,1015.75
2018-10-02T02:55:16.116Z,1015.80
2018-10-02T02:56:15.305Z,1015.75
2018-10-02T02:57:15.259Z,1015.65
2018-10-02T02:58:15.248Z,1015.65
2018-10-02T02:59:15.240Z,1015.60
2018-10-02T03:00:15.238Z,1015.63
2018-10-02T03:01:15.238Z,1015.62
2018-10-02T03:02:15.204Z,1015.59
2018-10-02T03:03:15.195Z,1015.53
2018-10-02T03:04:15.180Z,1015.61
2018-10-02T03:05:15.171Z,1015.57
2018-10-02T03:06:15.190Z,1015.56
2018-10-02T03:07:15.172Z,1015.53
2018-10-02T03:08:15.163Z,1015.49
2018-10-02T03:09:15.130Z,1015.43
2018-10-02T03:10:15.119Z,1015.44
2018-10-02T03:11:15.136Z,1015.41
2018-10-02T03:12:15.101Z,1015.41
2018-10-02T03:13:15.086Z,1015.42
2018-10-02T03:14:15.072Z,1015.38
2018-10-02T03:15:15.066Z,1015.37
2018-10-02T03:16:15.052Z,1015.38
2018-10-02T03:17:15.138Z,1015.37
2018-10-02T03:18:15.047Z,1015.45
2018-10-02T03:19:15.036Z,1015.46
2018-10-02T03:20:15.022Z,1015.44
2018-10-02T03:21:15.004Z,1015.40
2018-10-02T03:22:15.159Z,1015.47
2018-10-02T03:23:15.620Z,1015.45
2018-10-02T03:24:14.972Z,1015.48
2018-10-02T03:25:14.955Z,1015.42
2018-10-02T03:26:14.958Z,1015.32
2018-10-02T03:27:15.132Z,1015.33
2018-10-02T03:28:14.924Z,1015.30
2018-10-02T03:29:15.619Z,1015.26
2018-10-02T03:30:15.618Z,1015.20
2018-10-02T03:31:14.887Z,1015.25
2018-10-02T03:32:14.896Z,1015.31
2018-10-02T03:33:14.864Z,1015.36
2018-10-02T03:34:15.621Z,1015.34
2018-10-02T03:35:14.857Z,1015.37
2018-10-02T03:36:15.625Z,1015.38
2018-10-02T03:37:14.840Z,1015.33
2018-10-02T03:38:14.815Z,1015.32
2018-10-02T03:39:15.627Z,1015.30
2018-10-02T03:40:14.791Z,1015.21
2018-10-02T03:41:15.621Z,1015.16
2018-10-02T03:42:14.812Z,1015.16
2018-10-02T03:43:15.620Z,1015.04
2018-10-02T03:44:14.747Z,1015.04
2018-10-02T03:45:14.736Z,1014.99
2018-10-02T03:46:14.724Z,1015.08
2018-10-02T03:47:14.740Z,1015.11
2018-10-02T03:48:14.735Z,1015.03
2018-10-02T03:49:14.693Z,1015.04
2018-10-02T03:50:14.681Z,1015.09
2018-10-02T03:51:14.668Z,1015.05
2018-10-02T03:52:15.146Z,1014.94
2018-10-02T03:53:15.621Z,1014.96
2018-10-02T03:54:14.662Z,1014.94
2018-10-02T03:55:14.628Z,1014.95
2018-10-02T03:56:14.623Z,1014.93
2018-10-02T03:57:14.620Z,1014.94
2018-10-02T03:58:14.598Z,1014.93
2018-10-02T03:59:14.590Z,1014.91
2018-10-02T04:00:15.123Z,1014.94
2018-10-02T04:01:14.570Z,1014.90
2018-10-02T04:02:14.645Z,1014.90
2018-10-02T04:03:14.539Z,1014.91
2018-10-02T04:04:14.531Z,1014.85
2018-10-02T04:05:14.537Z,1014.89
2018-10-02T04:06:14.515Z,1014.80
2018-10-02T04:07:15.157Z,1014.80
2018-10-02T04:08:14.505Z,1014.72
2018-10-02T04:09:15.117Z,1014.67
2018-10-02T04:10:15.121Z,1014.69
2018-10-02T04:11:15.119Z,1014.63
2018-10-02T04:12:14.484Z,1014.63
2018-10-02T04:13:14.514Z,1014.64
2018-10-02T04:14:15.136Z,1014.64
2018-10-02T04:15:15.126Z,1014.63
2018-10-02T04:16:14.421Z,1014.61
2018-10-02T04:17:14.405Z,1014.62
2018-10-02T04:18:15.126Z,1014.65
2018-10-02T04:19:15.132Z,1014.54
2018-10-02T04:20:15.128Z,1014.60
2018-10-02T04:21:14.346Z,1014.56
2018-10-02T04:22:14.634Z,1014.52
2018-10-02T04:23:14.325Z,1014.56
2018-10-02T04:24:14.312Z,1014.50
2018-10-02T04:25:14.321Z,1014.48
2018-10-02T04:26:14.289Z,1014.42
2018-10-02T04:27:14.575Z,1014.36
2018-10-02T04:28:14.294Z,1014.27
2018-10-02T04:29:14.258Z,1014.23
2018-10-02T04:30:14.247Z,1014.19
2018-10-02T04:31:14.258Z,1014.18
2018-10-02T04:32:14.648Z,1014.18
2018-10-02T04:33:14.217Z,1014.23
2018-10-02T04:34:14.253Z,1014.21
2018-10-02T04:35:14.216Z,1014.21
2018-10-02T04:36:14.183Z,1014.23
2018-10-02T04:37:14.197Z,1014.20
2018-10-02T04:38:14.178Z,1014.26
2018-10-02T04:39:14.153Z,1014.23
2018-10-02T04:40:14.140Z,1014.20
2018-10-02T04:41:15.124Z,1014.16
2018-10-02T04:42:14.154Z,1014.14
2018-10-02T04:43:14.105Z,1014.13
2018-10-02T04:44:14.117Z,1014.17
2018-10-02T04:45:14.080Z,1014.22
2018-10-02T04:46:14.086Z,1014.14
2018-10-02T04:47:14.145Z,1014.23
2018-10-02T04:48:14.051Z,1014.25
2018-10-02T04:49:14.041Z,1014.23
2018-10-02T04:50:14.038Z,1014.14
2018-10-02T04:51:14.019Z,1014.23
2018-10-02T04:52:14.086Z,1014.21
2018-10-02T04:53:13.998Z,1014.26
2018-10-02T04:54:13.987Z,1014.27
2018-10-02T04:55:13.978Z,1014.23
2018-10-02T04:56:14.179Z,1014.32
2018-10-02T04:57:14.181Z,1014.29
2018-10-02T04:58:13.954Z,1014.35
2018-10-02T04:59:13.933Z,1014.30
2018-10-02T05:00:13.927Z,1014.26
2018-10-02T05:01:13.922Z,1014.20
2018-10-02T05:02:14.114Z,1014.33
2018-10-02T05:03:14.627Z,1014.25
2018-10-02T05:04:13.892Z,1014.28
2018-10-02T05:05:13.875Z,1014.32
2018-10-02T05:06:13.856Z,1014.22
2018-10-02T05:07:13.872Z,1014.23
2018-10-02T05:08:13.847Z,1014.25
2018-10-02T05:09:14.631Z,1014.18
2018-10-02T05:10:13.822Z,1014.11
2018-10-02T05:11:13.815Z,1014.07
2018-10-02T05:12:14.137Z,1014.07
2018-10-02T05:13:13.786Z,1014.05
2018-10-02T05:14:13.926Z,1014.03
2018-10-02T05:15:13.760Z,1014.11
2018-10-02T05:16:14.628Z,1014.11
2018-10-02T05:17:14.136Z,1014.00
2018-10-02T05:18:13.730Z,1014.10
2018-10-02T05:19:13.714Z,1014.11
2018-10-02T05:20:13.705Z,1014.06
2018-10-02T05:21:13.693Z,1014.05
2018-10-02T05:22:13.691Z,1014.12
2018-10-02T05:23:14.145Z,1013.99
2018-10-02T05:24:14.629Z,1014.01
2018-10-02T05:25:13.656Z,1014.00
2018-10-02T05:26:14.624Z,1013.94
2018-10-02T05:27:13.667Z,1014.01
2018-10-02T05:28:13.682Z,1013.91
2018-10-02T05:29:14.120Z,1013.90
2018-10-02T05:30:13.599Z,1013.86
2018-10-02T05:31:13.597Z,1013.91
2018-10-02T05:32:13.577Z,1013.85
2018-10-02T05:33:13.617Z,1013.89
2018-10-02T05:34:13.570Z,1013.75
2018-10-02T05:35:13.662Z,1013.82
2018-10-02T05:36:14.143Z,1013.85
2018-10-02T05:37:13.536Z,1013.91
2018-10-02T05:38:13.638Z,1013.84
2018-10-02T05:39:13.499Z,1013.92
2018-10-02T05:40:13.508Z,1013.90
2018-10-02T05:41:13.514Z,1013.91
2018-10-02T05:42:13.482Z,1013.85
2018-10-02T05:43:13.495Z,1013.92
2018-10-02T05:44:13.489Z,1013.97
2018-10-02T05:45:13.443Z,1013.94
2018-10-02T05:46:14.126Z,1013.87
2018-10-02T05:47:13.415Z,1013.90
2018-10-02T05:48:14.291Z,1013.85
2018-10-02T05:49:14.137Z,1013.90
2018-10-02T05:50:13.414Z,1013.82
2018-10-02T05:51:14.138Z,1013.82
2018-10-02T05:52:13.365Z,1013.83
2018-10-02T05:53:14.161Z,1013.78
2018-10-02T05:54:13.353Z,1013.72
2018-10-02T05:55:14.175Z,1013.70
2018-10-02T05:56:14.123Z,1013.67
2018-10-02T05:57:13.325Z,1013.69
2018-10-02T05:58:13.765Z,1013.58
2018-10-02T05:59:14.269Z,1013.69
2018-10-02T06:00:13.274Z,1013.58
2018-10-02T06:01:13.262Z,1013.59
2018-10-02T06:02:14.124Z,1013.52
2018-10-02T06:03:13.644Z,1013.50
2018-10-02T06:04:13.237Z,1013.53
2018-10-02T06:05:13.244Z,1013.45
2018-10-02T06:06:14.124Z,1013.48
2018-10-02T06:07:14.167Z,1013.44
2018-10-02T06:08:13.239Z,1013.44
2018-10-02T06:09:13.180Z,1013.42
2018-10-02T06:10:13.175Z,1013.44
2018-10-02T06:11:14.160Z,1013.47
2018-10-02T06:12:13.151Z,1013.43
2018-10-02T06:13:13.649Z,1013.45
2018-10-02T06:14:13.124Z,1013.41
2018-10-02T06:15:13.245Z,1013.36
2018-10-02T06:16:13.115Z,1013.35
2018-10-02T06:17:13.171Z,1013.29
2018-10-02T06:18:13.104Z,1013.32
2018-10-02T06:19:13.629Z,1013.30
2018-10-02T06:20:13.635Z,1013.28
2018-10-02T06:21:13.056Z,1013.30
2018-10-02T06:22:13.041Z,1013.33
2018-10-02T06:23:13.049Z,1013.29
2018-10-02T06:24:13.624Z,1013.31
2018-10-02T06:25:13.038Z,1013.23
2018-10-02T06:26:13.013Z,1013.26
2018-10-02T06:27:12.985Z,1013.29
2018-10-02T06:28:12.994Z,1013.27
2018-10-02T06:29:13.634Z,1013.31
2018-10-02T06:30:13.740Z,1013.33
2018-10-02T06:31:13.629Z,1013.34
2018-10-02T06:32:12.931Z,1013.27
2018-10-02T06:33:13.689Z,1013.30
2018-10-02T06:34:13.655Z,1013.27
2018-10-02T06:35:13.626Z,1013.33
2018-10-02T06:36:13.625Z,1013.27
2018-10-02T06:37:12.877Z,1013.22
2018-10-02T06:38:13.698Z,1013.20
2018-10-02T06:39:13.630Z,1013.22
2018-10-02T06:40:13.766Z,1013.20
2018-10-02T06:41:13.635Z,1013.17
2018-10-02T06:42:13.657Z,1013.21
2018-10-02T06:43:13.140Z,1013.02
2018-10-02T06:44:13.633Z,1013.15
2018-10-02T06:45:12.839Z,1013.16
2018-10-02T06:46:13.653Z,1013.17
2018-10-02T06:47:13.679Z,1013.16
2018-10-02T06:48:13.865Z,1013.07
2018-10-02T06:49:13.650Z,1013.08
2018-10-02T06:50:13.639Z,1013.05
2018-10-02T06:51:13.789Z,1013.07
2018-10-02T06:52:12.965Z,1013.10
2018-10-02T06:53:13.660Z,1013.10
2018-10-02T06:54:13.643Z,1013.08
2018-10-02T06:55:12.701Z,1013.02
2018-10-02T06:56:13.654Z,1013.10
2018-10-02T06:57:13.699Z,1012.98
2018-10-02T06:58:12.666Z,1012.92
2018-10-02T06:59:13.655Z,1012.94
2018-10-02T07:00:13.145Z,1012.89
2018-10-02T07:01:13.184Z,1013.00
2018-10-02T07:02:13.143Z,1012.95
2018-10-02T07:03:13.172Z,1012.96
2018-10-02T07:04:13.223Z,1012.94
2018-10-02T07:05:12.573Z,1012.90
2018-10-02T07:06:13.145Z,1012.89
2018-10-02T07:07:13.139Z,1012.88
2018-10-02T07:08:12.662Z,1012.74
2018-10-02T07:09:13.367Z,1012.74
2018-10-02T07:10:13.151Z,1012.81
2018-10-02T07:11:15.142Z,1012.79
2018-10-02T07:12:12.531Z,1012.77
2018-10-02T07:13:14.317Z,1012.79
2018-10-02T07:14:13.158Z,1012.79
2018-10-02T07:15:13.151Z,1012.57
2018-10-02T07:16:12.453Z,1012.63
2018-10-02T07:17:13.136Z,1012.83
2018-10-02T07:18:13.164Z,1012.61
2018-10-02T07:19:12.474Z,1012.66
2018-10-02T07:20:13.169Z,1012.55
2018-10-02T07:21:13.144Z,1012.46
2018-10-02T07:22:13.156Z,1012.62
2018-10-02T07:23:13.253Z,1012.46
2018-10-02T07:24:13.141Z,1012.56
2018-10-02T07:25:13.130Z,1012.61
2018-10-02T07:26:12.480Z,1012.62
2018-10-02T07:27:12.536Z,1012.64
2018-10-02T07:28:13.316Z,1012.71
2018-10-02T07:29:12.676Z,1012.73
2018-10-02T07:30:12.434Z,1012.76
2018-10-02T07:31:13.139Z,1012.71
2018-10-02T07:32:13.160Z,1012.69
2018-10-02T07:33:13.134Z,1012.73
2018-10-02T07:34:13.160Z,1012.61
2018-10-02T07:35:13.171Z,1012.66
2018-10-02T07:36:13.210Z,1012.63
2018-10-02T07:37:12.256Z,1012.72
2018-10-02T07:38:12.298Z,1012.74
2018-10-02T07:39:13.209Z,1012.84
2018-10-02T07:40:13.273Z,1012.87
2018-10-02T07:41:13.140Z,1012.90
2018-10-02T07:42:12.297Z,1012.85
2018-10-02T07:43:13.172Z,1012.77
2018-10-02T07:44:13.179Z,1012.71
2018-10-02T07:45:13.274Z,1012.90
2018-10-02T07:46:13.165Z,1012.82
2018-10-02T07:47:14.823Z,1012.88
2018-10-02T07:48:12.648Z,1012.88
2018-10-02T07:49:12.142Z,1012.88
2018-10-02T07:50:12.644Z,1012.89
2018-10-02T07:51:12.128Z,1012.75
2018-10-02T07:52:12.771Z,1012.65
2018-10-02T07:53:12.705Z,1012.93
2018-10-02T07:54:13.659Z,1012.91
2018-10-02T07:55:12.145Z,1012.83
2018-10-02T07:56:12.774Z,1012.89
2018-10-02T07:57:12.635Z,1012.76
2018-10-02T07:58:12.647Z,1012.80
2018-10-02T07:59:12.159Z,1012.75
2018-10-02T08:00:12.270Z,1012.78
2018-10-02T08:01:11.992Z,1012.71
2018-10-02T08:02:12.638Z,1012.80
2018-10-02T08:03:14.654Z,1012.72
2018-10-02T08:04:12.663Z,1012.72
2018-10-02T08:05:12.698Z,1012.70
2018-10-02T08:06:12.643Z,1012.61
2018-10-02T08:07:12.637Z,1012.67
2018-10-02T08:08:12.672Z,1012.71
2018-10-02T08:09:12.675Z,1012.74
2018-10-02T08:10:12.650Z,1012.70
2018-10-02T08:11:12.639Z,1012.77
2018-10-02T08:12:12.078Z,1012.66
2018-10-02T08:13:11.842Z,1012.74
2018-10-02T08:14:12.815Z,1012.78
2018-10-02T08:15:11.905Z,1012.78
2018-10-02T08:16:11.950Z,1012.66
2018-10-02T08:17:12.642Z,1012.66
2018-10-02T08:18:11.783Z,1012.68
2018-10-02T08:19:12.680Z,1012.66
2018-10-02T08:20:12.731Z,1012.62
2018-10-02T08:21:12.666Z,1012.65
2018-10-02T08:22:12.653Z,1012.65
2018-10-02T08:23:12.636Z,1012.71
2018-10-02T08:24:11.736Z,1012.69
2018-10-02T08:25:12.640Z,1012.72
2018-10-02T08:26:11.695Z,1012.78
2018-10-02T08:27:12.814Z,1012.75
2018-10-02T08:28:12.652Z,1012.81
2018-10-02T08:29:12.202Z,1012.78
2018-10-02T08:30:11.823Z,1012.91
2018-10-02T08:31:12.638Z,1012.72
2018-10-02T08:32:12.147Z,1012.76
2018-10-02T08:33:12.139Z,1012.80
2018-10-02T08:34:12.168Z,1012.72
2018-10-02T08:35:12.214Z,1012.79
2018-10-02T08:36:12.456Z,1012.84
2018-10-02T08:37:11.673Z,1012.67
2018-10-02T08:38:12.208Z,1012.76
2018-10-02T08:39:12.191Z,1012.70
2018-10-02T08:40:12.136Z,1012.77
2018-10-02T08:41:12.173Z,1012.69
2018-10-02T08:42:12.136Z,1012.78
2018-10-02T08:43:12.164Z,1012.78
2018-10-02T08:44:12.181Z,1012.80
2018-10-02T08:45:11.561Z,1012.75
2018-10-02T08:46:12.405Z,1012.67
2018-10-02T08:47:12.214Z,1012.74
2018-10-02T08:48:12.155Z,1012.65
2018-10-02T08:49:12.163Z,1012.68
2018-10-02T08:50:11.529Z,1012.69
2018-10-02T08:51:11.578Z,1012.73
2018-10-02T08:52:12.528Z,1012.65
2018-10-02T08:53:12.255Z,1012.75
2018-10-02T08:54:12.174Z,1012.72
2018-10-02T08:55:12.172Z,1012.64
2018-10-02T08:56:12.255Z,1012.71
2018-10-02T08:57:12.208Z,1012.72
2018-10-02T08:58:14.157Z,1012.61
2018-10-02T08:59:12.170Z,1012.65
2018-10-02T09:00:12.285Z,1012.69
2018-10-02T09:01:11.462Z,1012.63
2018-10-02T09:02:11.311Z,1012.65
2018-10-02T09:03:12.329Z,1012.53
2018-10-02T09:04:11.667Z,1012.64
2018-10-02T09:05:12.137Z,1012.65
2018-10-02T09:06:11.414Z,1012.57
2018-10-02T09:07:12.142Z,1012.59
2018-10-02T09:08:12.140Z,1012.53
2018-10-02T09:09:12.156Z,1012.51
2018-10-02T09:10:11.281Z,1012.49
2018-10-02T09:11:12.226Z,1012.49
2018-10-02T09:12:11.290Z,1012.45
2018-10-02T09:13:12.168Z,1012.49
2018-10-02T09:14:12.437Z,1012.51
2018-10-02T09:15:18.159Z,1012.41
2018-10-02T09:16:12.432Z,1012.45
2018-10-02T09:17:11.636Z,1012.51
2018-10-02T09:18:11.674Z,1012.53
2018-10-02T09:19:11.167Z,1012.48
2018-10-02T09:20:11.218Z,1012.53
2018-10-02T09:21:11.643Z,1012.53
2018-10-02T09:22:11.640Z,1012.61
2018-10-02T09:23:11.637Z,1012.54
2018-10-02T09:24:12.738Z,1012.47
2018-10-02T09:25:13.690Z,1012.39
2018-10-02T09:26:11.645Z,1012.43
2018-10-02T09:27:11.730Z,1012.47
2018-10-02T09:28:11.936Z,1012.38
2018-10-02T09:29:11.717Z,1012.41
2018-10-02T09:30:11.676Z,1012.36
2018-10-02T09:31:11.756Z,1012.36
2018-10-02T09:32:11.649Z,1012.33
2018-10-02T09:33:11.093Z,1012.27
2018-10-02T09:34:11.650Z,1012.26
2018-10-02T09:35:11.169Z,1012.15
2018-10-02T09:36:11.794Z,1012.27
2018-10-02T09:37:11.717Z,1012.27
2018-10-02T09:38:11.007Z,1012.26
2018-10-02T09:39:11.723Z,1012.27
2018-10-02T09:40:11.850Z,1012.34
2018-10-02T09:41:11.650Z,1012.29
2018-10-02T09:42:11.663Z,1012.23
2018-10-02T09:43:11.671Z,1012.42
2018-10-02T09:44:12.030Z,1012.34
2018-10-02T09:45:11.724Z,1012.34
2018-10-02T09:46:10.915Z,1012.36
2018-10-02T09:47:11.640Z,1012.31
2018-10-02T09:48:11.761Z,1012.36
2018-10-02T09:49:11.648Z,1012.39
2018-10-02T09:50:11.663Z,1012.37
2018-10-02T09:51:11.836Z,1012.38
2018-10-02T09:52:10.773Z,1012.30
2018-10-02T09:53:11.634Z,1012.29
2018-10-02T09:54:11.704Z,1012.26
2018-10-02T09:55:11.718Z,1012.25
2018-10-02T09:56:11.679Z,1012.31
2018-10-02T09:57:11.665Z,1012.27
2018-10-02T09:58:11.641Z,1012.20
2018-10-02T09:59:11.650Z,1012.18
2018-10-02T10:00:11.668Z,1012.08
2018-10-02T10:01:11.670Z,1012.13
2018-10-02T10:02:11.212Z,1012.09
2018-10-02T10:03:10.746Z,1012.09
2018-10-02T10:04:11.301Z,1012.15
2018-10-02T10:05:12.161Z,1012.04
2018-10-02T10:06:11.153Z,1012.03
2018-10-02T10:07:10.594Z,1011.93
2018-10-02T10:08:11.168Z,1011.88
2018-10-02T10:09:11.326Z,1011.93
2018-10-02T10:10:11.168Z,1011.93
2018-10-02T10:11:10.608Z,1011.93
2018-10-02T10:12:11.165Z,1011.98
2018-10-02T10:13:10.608Z,1011.90
2018-10-02T10:14:11.141Z,1011.94
2018-10-02T10:15:15.904Z,1011.95
2018-10-02T10:16:11.355Z,1011.99
2018-10-02T10:18:20.966Z,1011.83
2018-10-02T10:19:21.105Z,1011.87
2018-10-02T10:20:21.993Z,1011.89
2018-10-02T10:21:20.930Z,1011.80
2018-10-02T10:22:20.980Z,1011.81
2018-10-02T10:23:20.946Z,1011.83
2018-10-02T10:24:21.071Z,1011.88
2018-10-02T10:25:20.990Z,1011.93
2018-10-02T10:26:20.962Z,1011.98
2018-10-02T10:27:20.963Z,1011.94
2018-10-02T10:28:21.016Z,1011.85
2018-10-02T10:29:20.135Z,1011.86
2018-10-02T10:30:20.958Z,1011.83
2018-10-02T10:31:20.925Z,1011.85
2018-10-02T10:32:21.051Z,1011.93
2018-10-02T10:33:21.076Z,1011.91
2018-10-02T10:34:20.111Z,1011.87
2018-10-02T10:35:21.000Z,1011.96
2018-10-02T10:36:20.927Z,1011.85
2018-10-02T10:37:20.932Z,1011.97
2018-10-02T10:38:20.953Z,1011.97
2018-10-02T10:39:20.945Z,1012.02
2018-10-02T10:40:21.107Z,1011.95
2018-10-02T10:41:21.047Z,1012.01
2018-10-02T10:42:20.010Z,1011.92
2018-10-02T10:43:20.941Z,1011.80
2018-10-02T10:44:20.932Z,1011.84
2018-10-02T10:45:27.979Z,1011.81
2018-10-02T10:46:21.045Z,1011.83
2018-10-02T10:47:20.457Z,1011.78
2018-10-02T10:48:20.490Z,1011.88
2018-10-02T10:49:20.044Z,1011.90
2018-10-02T10:50:19.950Z,1011.90
2018-10-02T10:51:20.487Z,1011.83
2018-10-02T10:52:20.057Z,1011.84
2018-10-02T10:53:20.765Z,1011.80
2018-10-02T10:54:20.461Z,1011.88
2018-10-02T10:55:20.465Z,1011.99
2018-10-02T10:56:20.589Z,1011.85
2018-10-02T10:57:20.434Z,1011.95
2018-10-02T10:58:20.445Z,1011.75
2018-10-02T10:59:20.454Z,1011.78
2018-10-02T11:00:21.479Z,1011.76
2018-10-02T11:01:20.435Z,1011.74
2018-10-02T11:02:20.433Z,1011.83
2018-10-02T11:03:19.810Z,1011.78
2018-10-02T11:04:20.559Z,1011.81
2018-10-02T11:05:20.454Z,1011.79
2018-10-02T11:06:20.450Z,1011.86
2018-10-02T11:07:20.427Z,1011.85
2018-10-02T11:08:19.919Z,1011.87
2018-10-02T11:09:20.753Z,1011.88
2018-10-02T11:10:20.473Z,1011.81
2018-10-02T11:11:20.434Z,1011.91
2018-10-02T11:12:20.541Z,1011.81
2018-10-02T11:13:20.450Z,1011.79
2018-10-02T11:14:20.595Z,1011.87
2018-10-02T11:15:20.492Z,1011.82
2018-10-02T11:16:19.703Z,1011.92
2018-10-02T11:17:20.465Z,1011.85
2018-10-02T11:18:20.461Z,1011.94
2018-10-02T11:19:19.732Z,1011.82
2018-10-02T11:20:20.461Z,1011.85
2018-10-02T11:21:20.436Z,1011.81
2018-10-02T11:22:20.479Z,1011.79
2018-10-02T11:23:20.439Z,1011.90
2018-10-02T11:24:19.632Z,1011.86
2018-10-02T11:25:20.560Z,1011.88
2018-10-02T11:26:20.529Z,1011.84
2018-10-02T11:27:19.492Z,1011.81
2018-10-02T11:28:19.586Z,1011.82
2018-10-02T11:29:20.464Z,1011.85
2018-10-02T11:30:19.956Z,1011.90
2018-10-02T11:31:20.449Z,1011.81
2018-10-02T11:32:19.566Z,1011.87
2018-10-02T11:33:20.057Z,1011.81
2018-10-02T11:34:19.555Z,1011.77
2018-10-02T11:35:21.005Z,1011.69
2018-10-02T11:36:19.933Z,1011.69
2018-10-02T11:37:19.551Z,1011.71
2018-10-02T11:38:19.932Z,1011.65
2018-10-02T11:39:19.930Z,1011.66
2018-10-02T11:40:19.964Z,1011.73
2018-10-02T11:41:19.930Z,1011.74
2018-10-02T11:42:19.333Z,1011.68
2018-10-02T11:43:19.986Z,1011.66
2018-10-02T11:44:20.006Z,1011.66
2018-10-02T11:45:19.478Z,1011.64
2018-10-02T11:46:19.938Z,1011.64
2018-10-02T11:47:19.946Z,1011.54
2018-10-02T11:48:19.369Z,1011.60
2018-10-02T11:49:20.223Z,1011.48
2018-10-02T11:50:19.965Z,1011.53
2018-10-02T11:51:19.355Z,1011.58
2018-10-02T11:52:20.079Z,1011.57
2018-10-02T11:53:19.962Z,1011.55
2018-10-02T11:54:19.933Z,1011.49
2018-10-02T11:55:20.012Z,1011.53
2018-10-02T11:56:19.175Z,1011.42
2018-10-02T11:57:19.980Z,1011.48
2018-10-02T11:58:19.943Z,1011.51
2018-10-02T11:59:19.932Z,1011.46
2018-10-02T12:00:19.962Z,1011.50
2018-10-02T12:01:20.134Z,1011.49
2018-10-02T12:02:20.114Z,1011.44
2018-10-02T12:03:19.161Z,1011.50
2018-10-02T12:04:19.937Z,1011.38
2018-10-02T12:05:19.931Z,1011.45
2018-10-02T12:06:19.978Z,1011.47